Terminal Aerodrome Forecast
Issued by NWS

Home | Current Version | Previous Version | Text Only | Print | Product List | Glossary On
Versions: 1 2 3 4 5 6 7 8 9 10 11 12 13 14 15 16
724
FTUS43 KBIS 231729
TAFMOT
TAF
KMOT 231729Z 2318/2418 12012KT P6SM VCTS SCT050CB BKN200
     FM240300 10006KT P6SM FEW040 SCT200
     FM240700 14006KT P6SM FEW060 SCT250
     FM241100 17006KT P6SM SCT070 BKN200
     FM241500 21008KT P6SM FEW060 SCT200=

USA.gov is the U.S. government's official web portal to all federal, state and local government web resources and services.